createdAt,value
2023-01-02T00:00:08.435Z,8.46
2023-01-02T00:02:36.761Z,8.50
2023-01-02T00:05:05.521Z,8.46
2023-01-02T00:07:33.728Z,8.47
2023-01-02T00:10:03.429Z,8.45
2023-01-02T00:12:31.629Z,8.53
2023-01-02T00:14:59.877Z,8.56
2023-01-02T00:17:28.045Z,8.55
2023-01-02T00:19:56.531Z,8.58
2023-01-02T00:22:25.175Z,8.58
2023-01-02T00:24:53.357Z,8.56
2023-01-02T00:27:22.866Z,8.55
2023-01-02T00:29:51.091Z,8.53
2023-01-02T00:32:19.401Z,8.57
2023-01-02T00:34:47.808Z,8.54
2023-01-02T00:37:16.061Z,8.55
2023-01-02T00:39:44.370Z,8.59
2023-01-02T00:42:12.516Z,8.57
2023-01-02T00:44:42.164Z,8.57
2023-01-02T00:47:10.267Z,8.58
2023-01-02T00:49:38.467Z,8.52
2023-01-02T00:52:06.589Z,8.54
2023-01-02T00:54:34.988Z,8.50
2023-01-02T00:57:03.044Z,8.53
2023-01-02T00:59:31.276Z,8.53
2023-01-02T01:02:01.111Z,8.51
2023-01-02T01:04:29.277Z,8.56
2023-01-02T01:06:57.450Z,8.55
2023-01-02T01:09:25.846Z,8.55
2023-01-02T01:11:54.131Z,8.52
2023-01-02T01:14:23.831Z,8.55
2023-01-02T01:16:52.017Z,8.57
2023-01-02T01:19:21.594Z,8.53
2023-01-02T01:21:49.855Z,8.55
2023-01-02T01:24:18.222Z,8.55
2023-01-02T01:26:46.512Z,8.54
2023-01-02T01:29:14.933Z,8.58
2023-01-02T01:31:43.326Z,8.59
2023-01-02T01:34:12.746Z,8.61
2023-01-02T01:36:42.554Z,8.63
2023-01-02T01:39:10.886Z,8.67
2023-01-02T01:41:39.195Z,8.63
2023-01-02T01:44:40.614Z,8.60
2023-01-02T01:47:17.222Z,8.66
2023-01-02T01:49:47.509Z,8.69
2023-01-02T01:52:21.966Z,8.70
2023-01-02T01:54:56.573Z,8.65
2023-01-02T01:57:29.609Z,8.67
2023-01-02T02:00:00.055Z,8.69
2023-01-02T02:02:30.140Z,8.70
2023-01-02T02:05:01.922Z,8.71
2023-01-02T02:07:32.592Z,8.72
2023-01-02T02:10:05.459Z,8.71
2023-01-02T02:12:35.132Z,8.75
2023-01-02T02:15:03.563Z,8.74
2023-01-02T02:17:41.553Z,8.75
2023-01-02T02:20:29.830Z,8.64
2023-01-02T02:23:41.224Z,8.57
2023-01-02T02:26:45.720Z,8.69
2023-01-02T02:29:42.708Z,8.62
2023-01-02T02:32:22.207Z,8.62
2023-01-02T02:34:59.727Z,8.67
2023-01-02T02:37:38.018Z,8.67
2023-01-02T02:40:17.675Z,8.60
2023-01-02T02:42:58.308Z,8.64
2023-01-02T02:45:39.318Z,8.57
2023-01-02T02:48:14.542Z,8.67
2023-01-02T02:50:50.330Z,8.71
2023-01-02T02:53:23.674Z,8.71
2023-01-02T02:55:55.361Z,8.74
2023-01-02T02:58:25.873Z,8.76
2023-01-02T03:01:03.914Z,8.69
2023-01-02T03:03:33.505Z,8.76
2023-01-02T03:06:14.270Z,8.78
2023-01-02T03:08:46.399Z,8.79
2023-01-02T03:11:16.709Z,8.76
2023-01-02T03:13:52.608Z,8.83
2023-01-02T03:16:28.230Z,8.81
2023-01-02T03:19:03.565Z,8.80
2023-01-02T03:21:37.466Z,8.82
2023-01-02T03:24:09.258Z,8.88
2023-01-02T03:26:42.011Z,8.87
2023-01-02T03:29:30.342Z,8.85
2023-01-02T03:32:01.579Z,8.90
2023-01-02T03:34:33.770Z,8.89
2023-01-02T03:37:06.691Z,8.89
2023-01-02T03:39:38.985Z,8.89
2023-01-02T03:42:11.624Z,8.90
2023-01-02T03:44:45.703Z,8.89
2023-01-02T03:47:26.100Z,8.84
2023-01-02T03:49:58.947Z,8.86
2023-01-02T03:52:27.248Z,8.87
2023-01-02T03:54:57.481Z,8.87
2023-01-02T03:57:35.296Z,8.80
2023-01-02T04:00:09.011Z,8.86
2023-01-02T04:02:41.218Z,8.72
2023-01-02T04:05:19.779Z,8.80
2023-01-02T04:07:56.092Z,8.83
2023-01-02T04:10:25.477Z,8.82
2023-01-02T04:12:56.350Z,8.73
2023-01-02T04:15:28.637Z,8.65
2023-01-02T04:18:01.411Z,8.66
2023-01-02T04:20:34.785Z,8.65
2023-01-02T04:23:07.063Z,8.65
2023-01-02T04:25:43.189Z,8.53
2023-01-02T04:28:18.522Z,8.58
2023-01-02T04:30:52.139Z,8.57
2023-01-02T04:33:23.544Z,8.60
2023-01-02T04:35:53.097Z,8.60
2023-01-02T04:38:21.353Z,8.58
2023-01-02T04:40:50.509Z,8.56
2023-01-02T04:43:21.367Z,8.56
2023-01-02T04:45:50.419Z,8.59
2023-01-02T04:48:19.093Z,8.56
2023-01-02T04:50:49.071Z,8.52
2023-01-02T04:53:18.766Z,8.51
2023-01-02T04:55:46.981Z,8.38
2023-01-02T04:58:15.438Z,8.37
2023-01-02T05:00:43.732Z,8.45
2023-01-02T05:03:11.839Z,8.49
2023-01-02T05:05:40.140Z,8.45
2023-01-02T05:08:13.896Z,8.47
2023-01-02T05:10:45.588Z,8.44
2023-01-02T05:13:13.846Z,8.44
2023-01-02T05:15:42.128Z,8.39
2023-01-02T05:18:10.190Z,8.38
2023-01-02T05:20:38.570Z,8.40
2023-01-02T05:23:24.031Z,8.48
2023-01-02T05:25:53.669Z,8.44
2023-01-02T05:28:21.760Z,8.42
2023-01-02T05:30:50.571Z,8.43
2023-01-02T05:33:18.836Z,8.43
2023-01-02T05:35:48.247Z,8.35
2023-01-02T05:38:16.669Z,8.33
2023-01-02T05:40:44.998Z,8.34
2023-01-02T05:43:14.602Z,8.34
2023-01-02T05:45:42.967Z,8.31
2023-01-02T05:48:11.542Z,8.27
2023-01-02T05:50:39.707Z,8.35
2023-01-02T05:53:08.097Z,8.36
2023-01-02T05:55:36.344Z,8.40
2023-01-02T05:58:04.639Z,8.44
2023-01-02T06:00:34.323Z,8.47
2023-01-02T06:03:02.608Z,8.50
2023-01-02T06:05:30.983Z,8.41
2023-01-02T06:07:59.160Z,8.43
2023-01-02T06:10:27.359Z,8.49
2023-01-02T06:12:55.875Z,8.44
2023-01-02T06:15:24.405Z,8.50
2023-01-02T06:17:54.295Z,8.49
2023-01-02T06:20:22.633Z,8.52
2023-01-02T06:22:50.958Z,8.54
2023-01-02T06:25:19.308Z,8.55
2023-01-02T06:27:47.965Z,8.56
2023-01-02T06:30:16.672Z,8.59
2023-01-02T06:32:45.100Z,8.61
2023-01-02T06:35:14.969Z,8.62
2023-01-02T06:37:45.329Z,8.57
2023-01-02T06:40:14.059Z,8.68
2023-01-02T06:42:44.822Z,8.73
2023-01-02T06:45:13.984Z,8.65
2023-01-02T06:47:42.499Z,8.70
2023-01-02T06:50:11.570Z,8.65
2023-01-02T06:52:41.227Z,8.74
2023-01-02T06:55:09.965Z,8.72
2023-01-02T06:57:38.048Z,8.66
2023-01-02T07:00:07.034Z,8.70
2023-01-02T07:02:35.458Z,8.68
2023-01-02T07:05:03.711Z,8.72
2023-01-02T07:07:32.233Z,8.70
2023-01-02T07:10:01.967Z,8.64
2023-01-02T07:12:30.383Z,8.63
2023-01-02T07:14:58.785Z,8.64
2023-01-02T07:17:27.259Z,8.63
2023-01-02T07:20:00.969Z,8.60
2023-01-02T07:22:30.224Z,8.57
2023-01-02T07:24:58.342Z,8.59
2023-01-02T07:27:29.586Z,8.57
2023-01-02T07:29:58.085Z,8.56
2023-01-02T07:32:27.745Z,8.57
2023-01-02T07:34:56.105Z,8.56
2023-01-02T07:37:24.337Z,8.52
2023-01-02T07:39:52.510Z,8.50
2023-01-02T07:42:20.751Z,8.52
2023-01-02T07:44:50.577Z,8.48
2023-01-02T07:47:18.822Z,8.55
2023-01-02T07:49:47.154Z,8.53
2023-01-02T07:52:15.419Z,8.55
2023-01-02T07:54:43.591Z,8.55
2023-01-02T07:57:12.441Z,8.53
2023-01-02T07:59:41.150Z,8.56
2023-01-02T08:02:12.701Z,8.48
2023-01-02T08:04:41.127Z,8.53
2023-01-02T08:07:11.396Z,8.41
2023-01-02T08:09:39.695Z,8.53
2023-01-02T08:12:07.984Z,8.53
2023-01-02T08:14:38.098Z,8.33
2023-01-02T08:17:06.739Z,8.55
2023-01-02T08:19:36.631Z,8.56
2023-01-02T08:22:04.981Z,8.48
2023-01-02T08:24:33.431Z,8.57
2023-01-02T08:27:01.653Z,8.58
2023-01-02T08:29:30.005Z,8.59
2023-01-02T08:31:59.561Z,8.57
2023-01-02T08:34:29.408Z,8.58
2023-01-02T08:36:59.175Z,8.51
2023-01-02T08:42:12.601Z,8.34
2023-01-02T08:44:40.685Z,8.56
2023-01-02T08:47:08.800Z,8.58
2023-01-02T08:49:37.065Z,8.55
2023-01-02T08:52:07.218Z,8.45
2023-01-02T08:54:35.930Z,8.59
2023-01-02T08:57:04.455Z,8.57
2023-01-02T08:59:33.832Z,8.55
2023-01-02T09:02:02.087Z,8.55
2023-01-02T09:04:30.851Z,8.58
2023-01-02T09:06:59.223Z,8.67
2023-01-02T09:09:28.772Z,8.70
2023-01-02T09:11:57.324Z,8.78
2023-01-02T09:14:25.482Z,8.81
2023-01-02T09:16:54.185Z,8.76
2023-01-02T09:19:22.448Z,8.60
2023-01-02T09:21:50.539Z,8.67
2023-01-02T09:24:18.870Z,8.67
2023-01-02T09:26:48.689Z,8.63
2023-01-02T09:29:17.439Z,8.58
2023-01-02T09:31:45.781Z,8.72
2023-01-02T09:34:14.508Z,8.78
2023-01-02T09:36:42.732Z,8.73
2023-01-02T09:39:11.323Z,8.76
2023-01-02T09:41:41.911Z,8.82
2023-01-02T09:44:19.310Z,8.83
2023-01-02T09:46:52.078Z,8.77
2023-01-02T09:49:23.481Z,8.83
2023-01-02T09:51:55.555Z,8.85
2023-01-02T09:54:29.717Z,8.74
2023-01-02T09:57:11.379Z,8.81
2023-01-02T09:59:48.601Z,8.81
2023-01-02T10:02:32.410Z,8.80
2023-01-02T10:05:17.433Z,8.67
2023-01-02T10:07:53.741Z,8.79
2023-01-02T10:10:28.270Z,8.89
2023-01-02T10:13:05.112Z,8.88
2023-01-02T10:15:36.515Z,8.67
2023-01-02T10:18:11.281Z,8.87
2023-01-02T10:20:45.852Z,8.82
2023-01-02T10:23:19.287Z,8.78
2023-01-02T10:25:54.317Z,8.85
2023-01-02T10:28:29.695Z,8.91
2023-01-02T10:31:07.291Z,8.89
2023-01-02T10:33:45.712Z,8.81
2023-01-02T10:36:26.973Z,8.80
2023-01-02T10:39:11.721Z,8.94
2023-01-02T10:41:43.452Z,8.95
2023-01-02T10:44:21.924Z,8.94
2023-01-02T10:46:52.654Z,8.95
2023-01-02T10:49:23.765Z,8.96
2023-01-02T10:52:03.115Z,8.90
2023-01-02T10:54:32.055Z,8.91
2023-01-02T10:57:00.491Z,8.83
2023-01-02T10:59:31.017Z,8.86
2023-01-02T11:02:04.998Z,8.78
2023-01-02T11:04:41.286Z,8.89
2023-01-02T11:07:26.262Z,8.81
2023-01-02T11:09:57.146Z,8.84
2023-01-02T11:12:27.701Z,8.90
2023-01-02T11:15:12.381Z,8.94
2023-01-02T11:17:47.379Z,8.94
2023-01-02T11:20:41.198Z,8.87
2023-01-02T11:23:16.959Z,8.87
2023-01-02T11:25:47.423Z,8.98
2023-01-02T11:28:20.376Z,8.90
2023-01-02T11:30:52.337Z,9.05
2023-01-02T11:33:29.675Z,9.00
2023-01-02T11:36:06.656Z,9.05
2023-01-02T11:38:46.881Z,8.60
2023-01-02T11:41:49.682Z,8.83
2023-01-02T11:44:23.841Z,8.84
2023-01-02T11:46:54.504Z,8.86
2023-01-02T11:49:28.193Z,8.93
2023-01-02T11:51:59.619Z,8.98
2023-01-02T11:54:38.304Z,8.93
2023-01-02T11:57:18.585Z,8.92
2023-01-02T11:59:50.197Z,8.85
2023-01-02T12:02:25.979Z,8.84
2023-01-02T12:04:56.742Z,8.91
2023-01-02T12:07:42.500Z,8.94
2023-01-02T12:10:31.152Z,8.99
2023-01-02T12:13:18.680Z,9.02
2023-01-02T12:16:05.366Z,9.02
2023-01-02T12:18:49.059Z,9.01
2023-01-02T12:21:24.802Z,8.99
2023-01-02T12:24:06.077Z,8.98
2023-01-02T12:26:42.046Z,8.96
2023-01-02T12:29:46.815Z,9.04
2023-01-02T12:32:38.709Z,9.02
2023-01-02T12:35:22.330Z,9.04
2023-01-02T12:37:56.546Z,9.06
2023-01-02T12:40:39.000Z,9.09
2023-01-02T12:43:35.566Z,8.92
2023-01-02T12:46:17.266Z,8.89
2023-01-02T12:49:02.643Z,8.71
2023-01-02T12:51:41.447Z,8.79
2023-01-02T12:54:31.991Z,8.82
2023-01-02T12:57:07.988Z,8.88
2023-01-02T12:59:57.455Z,8.85
2023-01-02T13:02:42.426Z,8.86
2023-01-02T13:05:17.790Z,8.80
2023-01-02T13:07:49.887Z,8.77
2023-01-02T13:10:23.004Z,8.57
2023-01-02T13:12:51.605Z,8.69
2023-01-02T13:15:23.969Z,8.71
2023-01-02T13:18:02.329Z,8.69
2023-01-02T13:20:41.463Z,8.66
2023-01-02T13:23:23.915Z,8.51
2023-01-02T13:25:57.059Z,8.48
2023-01-02T13:28:25.663Z,8.52
2023-01-02T13:33:58.437Z,8.39
2023-01-02T13:36:29.654Z,8.46
2023-01-02T13:39:02.503Z,8.47
2023-01-02T13:41:59.014Z,8.40
2023-01-02T13:44:36.260Z,8.44
2023-01-02T13:47:25.874Z,8.42
2023-01-02T13:50:02.192Z,8.36
2023-01-02T13:52:33.271Z,8.41
2023-01-02T13:55:31.367Z,8.33
2023-01-02T13:58:38.737Z,8.30
2023-01-02T14:01:53.003Z,8.26
2023-01-02T14:04:36.458Z,8.37
2023-01-02T14:07:38.226Z,8.37
2023-01-02T14:10:41.534Z,8.44
2023-01-02T14:13:22.470Z,8.35
2023-01-02T14:16:22.247Z,8.25
2023-01-02T14:19:25.140Z,8.20
2023-01-02T14:22:03.267Z,8.23
2023-01-02T14:24:35.794Z,8.20
2023-01-02T14:27:06.995Z,8.39
2023-01-02T14:29:48.985Z,8.39
2023-01-02T14:32:25.813Z,8.39
2023-01-02T14:34:56.612Z,8.36
2023-01-02T14:37:38.317Z,8.31
2023-01-02T14:40:35.551Z,8.35
2023-01-02T14:43:24.514Z,8.43
2023-01-02T14:45:57.453Z,8.39
2023-01-02T14:48:33.778Z,8.41
2023-01-02T14:51:06.243Z,8.49
2023-01-02T14:53:38.255Z,8.48
2023-01-02T14:56:12.864Z,8.53
2023-01-02T14:58:43.755Z,8.57
2023-01-02T15:01:14.665Z,8.59
2023-01-02T15:04:16.147Z,8.39
2023-01-02T15:06:46.811Z,8.53
2023-01-02T15:09:26.965Z,8.45
2023-01-02T15:12:13.686Z,8.48
2023-01-02T15:14:44.005Z,8.48
2023-01-02T15:17:15.310Z,8.43
2023-01-02T15:19:45.835Z,8.39
2023-01-02T15:22:17.835Z,8.33
2023-01-02T15:24:49.569Z,8.50
2023-01-02T15:27:24.305Z,8.47
2023-01-02T15:29:55.002Z,8.48
2023-01-02T15:32:25.840Z,8.52
2023-01-02T15:35:10.308Z,8.51
2023-01-02T15:37:43.132Z,8.48
2023-01-02T15:40:17.528Z,8.56
2023-01-02T15:43:04.064Z,8.52
2023-01-02T15:45:33.477Z,8.50
2023-01-02T15:48:02.399Z,8.51
2023-01-02T15:50:33.962Z,8.37
2023-01-02T15:53:04.129Z,8.36
2023-01-02T15:55:36.602Z,8.38
2023-01-02T15:58:22.134Z,8.26
2023-01-02T16:00:53.666Z,8.00
2023-01-02T16:04:00.648Z,8.07
2023-01-02T16:06:30.786Z,8.15
2023-01-02T16:09:01.438Z,8.10
2023-01-02T16:11:30.147Z,7.98
2023-01-02T16:14:21.189Z,8.03
2023-01-02T16:16:53.481Z,8.00
2023-01-02T16:19:26.380Z,7.90
2023-01-02T16:22:08.837Z,7.86
2023-01-02T16:24:46.652Z,7.92
2023-01-02T16:27:28.472Z,7.50
2023-01-02T16:30:00.622Z,7.73
2023-01-02T16:32:38.945Z,7.93
2023-01-02T16:35:22.980Z,7.82
2023-01-02T16:38:01.198Z,7.88
2023-01-02T16:41:03.440Z,7.92
2023-01-02T16:43:43.154Z,7.89
2023-01-02T16:46:20.118Z,7.96
2023-01-02T16:48:50.107Z,7.99
2023-01-02T16:51:21.759Z,8.01
2023-01-02T16:53:55.227Z,7.87
2023-01-02T16:56:27.624Z,7.88
2023-01-02T16:59:01.510Z,7.88
2023-01-02T17:01:31.040Z,7.82
2023-01-02T17:03:59.803Z,7.93
2023-01-02T17:06:28.104Z,7.84
2023-01-02T17:08:58.038Z,7.79
2023-01-02T17:11:26.608Z,7.88
2023-01-02T17:13:55.040Z,7.82
2023-01-02T17:16:23.353Z,7.70
2023-01-02T17:18:51.878Z,7.74
2023-01-02T17:21:20.499Z,7.82
2023-01-02T17:23:50.899Z,7.88
2023-01-02T17:26:21.684Z,7.98
2023-01-02T17:28:49.961Z,7.97
2023-01-02T17:31:25.357Z,7.91
2023-01-02T17:33:54.948Z,7.98
2023-01-02T17:36:24.132Z,8.01
2023-01-02T17:38:52.517Z,8.03
2023-01-02T17:41:24.066Z,8.00
2023-01-02T17:44:01.641Z,8.07
2023-01-02T17:49:21.291Z,7.95
2023-01-02T17:51:49.826Z,8.02
2023-01-02T17:54:18.520Z,7.97
2023-01-02T17:56:48.679Z,8.04
2023-01-02T17:59:19.394Z,8.00
2023-01-02T18:01:48.842Z,7.97
2023-01-02T18:04:33.653Z,7.91
2023-01-02T18:07:12.981Z,7.86
2023-01-02T18:10:07.938Z,7.74
2023-01-02T18:12:40.724Z,7.76
2023-01-02T18:15:19.459Z,7.83
2023-01-02T18:17:51.719Z,7.91
2023-01-02T18:20:24.368Z,7.83
2023-01-02T18:22:53.102Z,7.97
2023-01-02T18:25:25.653Z,7.67
2023-01-02T18:27:59.311Z,7.79
2023-01-02T18:30:28.824Z,7.77
2023-01-02T18:33:05.146Z,7.79
2023-01-02T18:35:56.644Z,7.83
2023-01-02T18:38:30.490Z,7.75
2023-01-02T18:40:59.120Z,7.81
2023-01-02T18:43:35.852Z,7.73
2023-01-02T18:46:13.757Z,7.72
2023-01-02T18:48:42.036Z,7.79
2023-01-02T18:51:19.268Z,7.81
2023-01-02T18:53:51.090Z,7.80
2023-01-02T18:56:21.392Z,7.89
2023-01-02T18:59:03.954Z,7.76
2023-01-02T19:01:37.882Z,7.80
2023-01-02T19:04:26.618Z,7.76
2023-01-02T19:06:59.135Z,7.87
2023-01-02T19:09:37.060Z,7.88
2023-01-02T19:12:47.251Z,7.81
2023-01-02T19:15:40.763Z,7.75
2023-01-02T19:18:35.666Z,7.72
2023-01-02T19:21:18.768Z,7.75
2023-01-02T19:23:58.554Z,7.90
2023-01-02T19:26:34.776Z,7.90
2023-01-02T19:29:11.903Z,7.79
2023-01-02T19:31:45.716Z,7.84
2023-01-02T19:34:41.319Z,7.62
2023-01-02T19:37:27.933Z,7.85
2023-01-02T19:40:03.007Z,7.95
2023-01-02T19:42:32.492Z,7.96
2023-01-02T19:45:03.020Z,7.91
2023-01-02T19:47:37.130Z,7.96
2023-01-02T19:50:11.362Z,7.99
2023-01-02T19:52:40.861Z,8.01
2023-01-02T19:55:11.576Z,7.96
2023-01-02T19:57:39.980Z,8.00
2023-01-02T20:00:14.668Z,7.92
2023-01-02T20:02:46.760Z,7.89
2023-01-02T20:05:21.851Z,7.96
2023-01-02T20:07:54.193Z,7.98
2023-01-02T20:10:29.070Z,7.97
2023-01-02T20:13:01.624Z,7.90
2023-01-02T20:15:31.222Z,7.97
2023-01-02T20:18:10.761Z,7.96
2023-01-02T20:20:39.784Z,8.01
2023-01-02T20:23:10.729Z,8.02
2023-01-02T20:25:44.490Z,7.92
2023-01-02T20:28:13.924Z,7.87
2023-01-02T20:30:54.224Z,7.81
2023-01-02T20:33:41.876Z,7.77
2023-01-02T20:36:13.984Z,7.87
2023-01-02T20:38:44.555Z,7.79
2023-01-02T20:41:20.480Z,7.60
2023-01-02T20:43:50.187Z,7.59
2023-01-02T20:46:19.211Z,7.60
2023-01-02T20:48:49.369Z,7.40
2023-01-02T20:51:18.245Z,7.17
2023-01-02T20:53:49.557Z,7.13
2023-01-02T20:56:18.239Z,7.16
2023-01-02T20:58:47.115Z,7.27
2023-01-02T21:01:16.171Z,7.42
2023-01-02T21:03:44.560Z,7.49
2023-01-02T21:06:14.565Z,7.50
2023-01-02T21:08:43.167Z,7.49
2023-01-02T21:11:12.020Z,7.52
2023-01-02T21:13:40.800Z,7.48
2023-01-02T21:16:09.314Z,7.45
2023-01-02T21:18:39.416Z,7.45
2023-01-02T21:21:10.758Z,7.40
2023-01-02T21:23:42.704Z,7.33
2023-01-02T21:26:14.541Z,7.41
2023-01-02T21:28:44.543Z,7.31
2023-01-02T21:31:13.659Z,7.38
2023-01-02T21:33:42.770Z,7.42
2023-01-02T21:36:11.519Z,7.46
2023-01-02T21:38:41.549Z,7.44
2023-01-02T21:41:27.789Z,7.47
2023-01-02T21:43:56.186Z,7.43
2023-01-02T21:46:24.543Z,7.42
2023-01-02T21:48:53.182Z,7.51
2023-01-02T21:51:21.365Z,7.47
2023-01-02T21:53:51.388Z,7.40
2023-01-02T21:56:19.695Z,7.38
2023-01-02T21:58:48.281Z,7.36
2023-01-02T22:01:16.613Z,7.33
2023-01-02T22:03:45.520Z,7.31
2023-01-02T22:06:13.985Z,7.28
2023-01-02T22:08:42.325Z,7.24
2023-01-02T22:11:29.634Z,7.22
2023-01-02T22:13:58.332Z,7.29
2023-01-02T22:16:26.688Z,7.20
2023-01-02T22:18:55.108Z,7.29
2023-01-02T22:21:23.608Z,7.24
2023-01-02T22:23:52.600Z,7.27
2023-01-02T22:26:22.748Z,7.18
2023-01-02T22:28:51.550Z,7.18
2023-01-02T22:31:19.783Z,7.10
2023-01-02T22:33:48.660Z,7.01
2023-01-02T22:36:16.974Z,6.95
2023-01-02T22:39:17.470Z,6.91
2023-01-02T22:41:36.970Z,6.80
2023-01-02T22:44:07.694Z,6.79
2023-01-02T22:46:43.248Z,6.77
2023-01-02T22:49:16.500Z,6.65
2023-01-02T22:52:07.881Z,6.57
2023-01-02T22:54:33.775Z,6.50
2023-01-02T22:57:03.983Z,6.43
2023-01-02T22:59:32.352Z,6.44
2023-01-02T23:02:00.639Z,6.32
2023-01-02T23:04:30.078Z,6.20
2023-01-02T23:07:23.434Z,6.09
2023-01-02T23:09:47.957Z,5.90
2023-01-02T23:12:18.587Z,5.79
2023-01-02T23:14:46.880Z,5.69
2023-01-02T23:17:32.885Z,5.69
2023-01-02T23:20:01.147Z,5.61
2023-01-02T23:22:30.028Z,5.51
2023-01-02T23:24:58.228Z,5.49
2023-01-02T23:27:28.381Z,5.47
2023-01-02T23:29:56.826Z,5.56
2023-01-02T23:32:26.581Z,5.44
2023-01-02T23:34:55.334Z,5.46
2023-01-02T23:37:25.141Z,5.43
2023-01-02T23:39:53.677Z,5.37
2023-01-02T23:42:22.194Z,5.29
2023-01-02T23:44:52.184Z,5.28
2023-01-02T23:47:21.063Z,5.35
2023-01-02T23:49:49.436Z,5.42
2023-01-02T23:52:18.289Z,5.26
2023-01-02T23:54:47.518Z,5.06
2023-01-02T23:57:15.908Z,4.89
2023-01-02T23:59:44.481Z,4.61
